Terminal Aerodrome Forecast
Issued by NWS Tampa Bay Area, FL

Home | Current Version | Previous Version | Text Only | Print | Product List | Glossary On
Versions: 1 2 3 4 5 6 7 8 9 10 11 12 13
288
FTUS42 KTBW 130541
TAFSRQ
TAF
KSRQ 130541Z 1306/1406 23006KT P6SM FEW025
     FM130800 27006KT P6SM SCT025
      TEMPO 1309/1312 5SM BR SCT025
     FM131200 33008KT P6SM FEW025
     FM131400 35011G17KT P6SM FEW040
     FM140000 01007KT P6SM SKC=

USA.gov is the U.S. government's official web portal to all federal, state and local government web resources and services.